Time;durP1;ratioP1;P1;durP2;ratioP2;P2;SDS_P1;SDS_P2;PMS_P1;PMS_P2;Temp;Humidity;BMP_temperature;BMP_pressure;BME280_temperature;BME280_humidity;BME280_pressure;Samples;Min_cycle;Max_cycle;Signal;HPM_P1;HPM_P2
2023/02/03 00:01:08;;;;;;;3.47;2.55;;;3.40;99.90;;;;;;5048077;28;20052;-36
2023/02/03 00:03:35;;;;;;;3.75;2.47;;;3.40;99.90;;;;;;5048655;28;20072;-36
2023/02/03 00:06:03;;;;;;;3.55;3.13;;;3.40;99.90;;;;;;5048205;28;20052;-37
2023/02/03 00:08:31;;;;;;;3.15;2.95;;;3.40;99.90;;;;;;5042931;28;20484;-36
2023/02/03 00:10:59;;;;;;;2.97;2.67;;;3.40;99.90;;;;;;5046767;28;20436;-36
2023/02/03 00:13:27;;;;;;;4.35;2.72;;;3.40;99.90;;;;;;5047925;28;20328;-36
2023/02/03 00:15:56;;;;;;;2.45;1.92;;;3.40;99.90;;;;;;5048529;28;20512;-37
2023/02/03 00:18:24;;;;;;;4.68;4.28;;;3.40;99.90;;;;;;5041078;28;20049;-37
2023/02/03 00:20:51;;;;;;;11.07;2.85;;;3.50;99.90;;;;;;5047481;28;20053;-37
2023/02/03 00:23:19;;;;;;;2.25;2.08;;;3.50;99.90;;;;;;5047727;28;20422;-38
2023/02/03 00:25:47;;;;;;;2.10;2.00;;;3.50;99.90;;;;;;5043562;28;20053;-37
2023/02/03 00:28:14;;;;;;;1.83;1.73;;;3.50;99.90;;;;;;5047420;28;20510;-38
2023/02/03 00:30:42;;;;;;;5.65;2.70;;;3.50;99.90;;;;;;5042870;28;20540;-37
2023/02/03 00:33:10;;;;;;;13.43;4.68;;;3.50;99.90;;;;;;5047948;28;20044;-37
2023/02/03 00:35:39;;;;;;;2.72;2.35;;;3.50;99.90;;;;;;5045729;28;20056;-38
2023/02/03 00:38:06;;;;;;;11.82;3.38;;;3.40;99.90;;;;;;5046151;28;20056;-37
2023/02/03 00:40:34;;;;;;;2.35;2.15;;;3.40;99.90;;;;;;5047121;28;20045;-36
2023/02/03 00:43:01;;;;;;;4.20;2.10;;;3.50;99.90;;;;;;5047507;28;20056;-36
2023/02/03 00:45:29;;;;;;;7.68;2.40;;;3.50;99.90;;;;;;5047500;28;20528;-37
2023/02/03 00:47:56;;;;;;;2.25;2.05;;;3.50;99.90;;;;;;5048556;28;20053;-37
2023/02/03 00:50:24;;;;;;;2.25;2.15;;;3.50;99.90;;;;;;5041122;28;20056;-37
2023/02/03 00:52:55;;;;;;;4.82;2.25;;;3.60;99.90;;;;;;5046079;28;20061;-36
2023/02/03 00:55:23;;;;;;;5.10;2.38;;;3.60;99.90;;;;;;5045556;28;20053;-36
2023/02/03 00:57:50;;;;;;;2.40;2.28;;;3.60;99.90;;;;;;5047438;28;20053;-36
2023/02/03 01:00:19;;;;;;;3.17;2.88;;;3.50;99.90;;;;;;5047124;28;20525;-36
2023/02/03 01:02:46;;;;;;;7.47;2.00;;;3.50;99.90;;;;;;5047348;28;20067;-36
2023/02/03 01:05:14;;;;;;;4.72;2.25;;;3.60;99.90;;;;;;5046443;28;20333;-36
2023/02/03 01:07:41;;;;;;;2.00;1.90;;;3.60;99.90;;;;;;5046809;28;20061;-36
2023/02/03 01:10:09;;;;;;;3.20;2.40;;;3.60;99.90;;;;;;5045758;28;20440;-36
2023/02/03 01:12:37;;;;;;;2.47;1.73;;;3.60;99.90;;;;;;5046164;28;20056;-36
2023/02/03 01:15:05;;;;;;;2.17;2.08;;;3.60;99.90;;;;;;5030870;28;20049;-36
2023/02/03 01:17:33;;;;;;;4.85;1.80;;;3.60;99.90;;;;;;5047092;28;20412;-36
2023/02/03 01:20:00;;;;;;;2.25;2.05;;;3.60;99.90;;;;;;5046602;28;20057;-36
2023/02/03 01:22:29;;;;;;;8.48;2.63;;;3.60;99.90;;;;;;5046610;28;20052;-36
2023/02/03 01:24:57;;;;;;;1.88;1.77;;;3.50;99.90;;;;;;5041918;28;20448;-36
2023/02/03 01:27:24;;;;;;;6.45;2.22;;;3.50;99.90;;;;;;5047044;28;20079;-36
2023/02/03 01:29:52;;;;;;;1.63;1.50;;;3.50;99.90;;;;;;5046338;28;20059;-36
2023/02/03 01:32:20;;;;;;;1.50;1.30;;;3.50;99.90;;;;;;5045366;28;20048;-36
2023/02/03 01:34:47;;;;;;;1.65;1.65;;;3.50;99.90;;;;;;5046856;28;20052;-35
2023/02/03 01:37:16;;;;;;;2.95;1.63;;;3.50;99.90;;;;;;5045796;28;20052;-36
2023/02/03 01:39:44;;;;;;;2.40;1.42;;;3.50;99.90;;;;;;5045946;28;20501;-36
2023/02/03 01:42:13;;;;;;;4.40;2.22;;;3.50;99.90;;;;;;5046376;28;20037;-37
2023/02/03 01:44:42;;;;;;;1.52;1.17;;;3.50;99.90;;;;;;5045606;28;20036;-35
2023/02/03 01:47:57;;;;;;;4.05;2.47;;;3.60;99.90;;;;;;5046951;28;20144;-36
2023/02/03 01:50:35;;;;;;;1.67;1.58;;;3.50;99.90;;;;;;4944117;28;20062;-36
2023/02/03 01:53:07;;;;;;;12.80;2.45;;;3.60;99.90;;;;;;5032324;28;20061;-36
2023/02/03 01:55:39;;;;;;;1.83;1.70;;;3.50;99.90;;;;;;5043198;28;20048;-36
2023/02/03 01:58:36;;;;;;;3.03;2.20;;;3.60;99.90;;;;;;5032904;28;20040;-36
2023/02/03 02:01:03;;;;;;;1.40;1.35;;;3.60;99.90;;;;;;5044066;28;20045;-36
2023/02/03 02:03:49;;;;;;;5.30;2.25;;;3.60;99.90;;;;;;5045562;28;20053;-36
2023/02/03 02:06:16;;;;;;;1.20;1.10;;;3.60;99.90;;;;;;5045306;28;20041;-36
2023/02/03 02:08:47;;;;;;;1.48;1.38;;;3.60;99.90;;;;;;5045444;28;20501;-35
2023/02/03 02:11:20;;;;;;;1.95;1.50;;;3.60;99.90;;;;;;5046217;28;20056;-35
2023/02/03 02:13:51;;;;;;;1.92;1.80;;;3.60;99.90;;;;;;5045779;28;20041;-36
2023/02/03 02:16:28;;;;;;;2.03;1.88;;;3.60;99.90;;;;;;5047122;28;20041;-36
2023/02/03 02:19:14;;;;;;;2.58;1.83;;;3.60;99.90;;;;;;5039975;28;20413;-37
2023/02/03 02:21:54;;;;;;;3.13;1.75;;;3.60;99.90;;;;;;5045603;28;20029;-36
2023/02/03 02:24:27;;;;;;;10.00;2.40;;;3.60;99.90;;;;;;5027322;28;20048;-36
2023/02/03 02:27:21;;;;;;;2.42;2.33;;;3.50;99.90;;;;;;5029487;28;20079;-36
2023/02/03 02:29:58;;;;;;;1.98;1.73;;;3.60;99.90;;;;;;5030162;28;20060;-36
2023/02/03 02:32:43;;;;;;;1.77;1.67;;;3.60;99.90;;;;;;5046212;28;20045;-36
2023/02/03 02:35:27;;;;;;;3.40;1.88;;;3.60;99.90;;;;;;5029176;28;20409;-36
2023/02/03 02:38:08;;;;;;;2.50;2.30;;;3.70;99.90;;;;;;5044468;28;20056;-36
2023/02/03 02:40:41;;;;;;;6.82;2.08;;;3.60;99.90;;;;;;5040089;28;20052;-36
2023/02/03 02:43:12;;;;;;;5.40;1.80;;;3.70;99.90;;;;;;5029111;28;20049;-36
2023/02/03 02:45:49;;;;;;;1.88;1.77;;;3.70;99.90;;;;;;5045315;28;20060;-36
2023/02/03 02:48:21;;;;;;;5.18;3.40;;;3.60;99.90;;;;;;5046415;28;20548;-36
2023/02/03 02:50:54;;;;;;;14.30;3.20;;;3.60;99.90;;;;;;5051796;28;20060;-37
2023/02/03 02:53:24;;;;;;;2.20;2.10;;;3.60;99.90;;;;;;5046358;28;20063;-36
2023/02/03 02:55:56;;;;;;;2.20;1.30;;;3.70;99.90;;;;;;5031934;28;20071;-36
2023/02/03 02:58:25;;;;;;;7.90;2.30;;;3.70;99.90;;;;;;5050301;28;20052;-36
2023/02/03 03:00:54;;;;;;;2.17;2.05;;;3.60;99.90;;;;;;5051827;28;20548;-36
2023/02/03 03:03:23;;;;;;;1.65;1.55;;;3.70;99.90;;;;;;5055187;28;20412;-36
2023/02/03 03:05:55;;;;;;;4.65;2.15;;;3.80;99.90;;;;;;5050032;28;20056;-35
2023/02/03 03:08:40;;;;;;;3.80;1.38;;;3.70;99.90;;;;;;5030075;28;20045;-36
2023/02/03 03:11:10;;;;;;;3.80;1.58;;;3.80;99.90;;;;;;5030186;28;20157;-36
2023/02/03 03:13:44;;;;;;;1.55;1.48;;;3.70;99.90;;;;;;5047769;28;20041;-36
2023/02/03 03:16:13;;;;;;;2.90;1.70;;;3.80;99.90;;;;;;5031631;28;20421;-36
2023/02/03 03:18:45;;;;;;;1.70;1.60;;;3.70;99.90;;;;;;5046787;28;20504;-38
2023/02/03 03:21:26;;;;;;;1.90;1.77;;;3.70;99.90;;;;;;5031846;28;20432;-40
2023/02/03 03:23:57;;;;;;;1.60;1.50;;;3.80;99.90;;;;;;5045860;28;20477;-39
2023/02/03 03:26:33;;;;;;;2.20;2.10;;;3.80;99.90;;;;;;5050932;28;20044;-40
2023/02/03 03:29:14;;;;;;;1.45;1.35;;;3.80;99.90;;;;;;5031037;28;20596;-38
2023/02/03 03:31:43;;;;;;;2.17;2.08;;;3.80;99.90;;;;;;5044849;28;20053;-39
2023/02/03 03:34:12;;;;;;;1.98;1.73;;;3.80;99.90;;;;;;5051224;28;20060;-40
2023/02/03 03:36:53;;;;;;;1.73;1.63;;;3.90;99.90;;;;;;5049684;28;20045;-39
2023/02/03 03:39:39;;;;;;;2.40;1.60;;;3.90;99.90;;;;;;5047989;28;20380;-38
2023/02/03 03:42:12;;;;;;;2.15;1.55;;;3.90;99.90;;;;;;5049920;28;20413;-38
2023/02/03 03:44:50;;;;;;;2.65;2.45;;;3.80;99.90;;;;;;5050216;28;20041;-39
2023/02/03 03:47:27;;;;;;;1.58;1.50;;;3.70;99.90;;;;;;5031696;28;20045;-37
2023/02/03 03:49:58;;;;;;;1.77;1.67;;;3.70;99.90;;;;;;5038827;28;20072;-36
2023/02/03 03:52:31;;;;;;;1.80;1.42;;;3.70;99.90;;;;;;5032956;28;20053;-35
2023/02/03 03:55:00;;;;;;;6.20;3.03;;;3.80;99.90;;;;;;5032772;28;20052;-36
2023/02/03 03:57:49;;;;;;;3.92;1.60;;;3.70;99.90;;;;;;5038151;28;20046;-36
2023/02/03 04:00:20;;;;;;;5.60;2.17;;;3.80;99.90;;;;;;5037143;28;20527;-36
2023/02/03 04:02:52;;;;;;;2.13;1.50;;;3.80;99.90;;;;;;5032548;28;20064;-36
2023/02/03 04:05:22;;;;;;;1.88;1.77;;;3.90;99.90;;;;;;5037832;28;20290;-37
2023/02/03 04:07:49;;;;;;;2.13;2.00;;;3.90;99.90;;;;;;5039098;28;20050;-36
2023/02/03 04:10:26;;;;;;;1.75;1.65;;;3.90;99.90;;;;;;5035385;28;20044;-36
2023/02/03 04:12:54;;;;;;;4.03;1.40;;;3.90;99.90;;;;;;5031518;28;20041;-36
2023/02/03 04:15:22;;;;;;;1.65;1.55;;;3.90;99.90;;;;;;5037068;28;20045;-36
2023/02/03 04:17:49;;;;;;;4.90;1.73;;;3.90;99.90;;;;;;5030905;28;20053;-36
2023/02/03 04:20:17;;;;;;;1.00;1.00;;;3.90;99.90;;;;;;5036008;28;20547;-36
2023/02/03 04:22:46;;;;;;;2.13;2.00;;;3.90;99.90;;;;;;5037238;28;20451;-36
2023/02/03 04:25:14;;;;;;;4.25;1.52;;;3.90;99.90;;;;;;5037536;28;20049;-36
2023/02/03 04:27:42;;;;;;;1.77;1.23;;;3.90;99.90;;;;;;5036136;28;20050;-36
2023/02/03 04:30:10;;;;;;;2.58;1.75;;;3.90;99.90;;;;;;5033760;28;20414;-36
2023/02/03 04:32:38;;;;;;;5.75;2.97;;;3.80;99.90;;;;;;5030899;28;20072;-36
2023/02/03 04:35:06;;;;;;;2.88;1.73;;;3.90;99.90;;;;;;5016691;28;20057;-36
2023/02/03 04:37:34;;;;;;;1.92;1.83;;;3.90;99.90;;;;;;5036776;28;20049;-36
2023/02/03 04:40:02;;;;;;;1.33;1.33;;;4.00;99.90;;;;;;5031640;28;20076;-37
2023/02/03 04:42:29;;;;;;;2.35;2.05;;;4.00;99.90;;;;;;5037552;28;20061;-36
2023/02/03 04:44:57;;;;;;;5.82;1.23;;;4.00;99.90;;;;;;5037982;28;20046;-36
2023/02/03 04:47:24;;;;;;;2.65;1.85;;;3.90;99.90;;;;;;5037987;28;20056;-36
2023/02/03 04:49:52;;;;;;;1.85;1.60;;;3.90;99.90;;;;;;5037356;28;20068;-35
2023/02/03 04:52:19;;;;;;;2.40;1.63;;;4.00;99.90;;;;;;5038124;28;20509;-35
2023/02/03 04:54:47;;;;;;;1.65;1.55;;;4.00;99.90;;;;;;5035453;28;20056;-36
2023/02/03 04:57:14;;;;;;;1.35;1.30;;;4.00;99.90;;;;;;5034481;28;20068;-36
2023/02/03 04:59:42;;;;;;;2.00;1.33;;;3.90;99.90;;;;;;5033903;28;20046;-36
2023/02/03 05:02:09;;;;;;;2.25;1.98;;;3.90;99.90;;;;;;5036489;28;20414;-36
2023/02/03 05:04:37;;;;;;;1.13;1.13;;;3.90;99.90;;;;;;5032815;28;20050;-36
2023/02/03 05:07:04;;;;;;;1.50;1.25;;;3.90;99.90;;;;;;5034063;28;20049;-36
2023/02/03 05:09:32;;;;;;;1.73;1.42;;;3.90;99.90;;;;;;5029689;28;20049;-36
2023/02/03 05:11:59;;;;;;;0.95;0.95;;;3.90;99.90;;;;;;5035335;28;20049;-36
2023/02/03 05:14:27;;;;;;;1.02;1.02;;;3.90;99.90;;;;;;5034374;28;20057;-37
2023/02/03 05:16:54;;;;;;;3.28;1.42;;;3.90;99.90;;;;;;5020302;28;20511;-36
2023/02/03 05:19:22;;;;;;;2.42;1.77;;;3.90;99.90;;;;;;5024118;28;20045;-36
2023/02/03 05:21:50;;;;;;;2.15;1.30;;;3.90;99.90;;;;;;5041379;28;20064;-36
2023/02/03 05:24:17;;;;;;;1.50;1.50;;;3.90;99.90;;;;;;5031518;28;20512;-36
2023/02/03 05:26:45;;;;;;;1.42;1.38;;;3.90;99.90;;;;;;5034319;28;20060;-36
2023/02/03 05:29:12;;;;;;;2.90;1.50;;;3.90;99.90;;;;;;5034473;28;20045;-35
2023/02/03 05:31:40;;;;;;;2.10;2.00;;;4.00;99.90;;;;;;5041293;28;20449;-36
2023/02/03 05:34:07;;;;;;;1.38;1.33;;;3.90;99.90;;;;;;5028655;28;20041;-36
2023/02/03 05:36:35;;;;;;;1.27;1.27;;;3.90;99.90;;;;;;5027120;28;20422;-37
2023/02/03 05:39:03;;;;;;;4.57;1.77;;;3.90;99.90;;;;;;5037319;28;20496;-36
2023/02/03 05:44:23;;;;;;;1.17;1.17;;;3.90;99.90;;;;;;5039072;28;20045;-36
2023/02/03 05:46:53;;;;;;;2.00;1.90;;;3.90;99.90;;;;;;5035268;28;20052;-36
2023/02/03 05:49:22;;;;;;;2.90;1.52;;;3.90;99.90;;;;;;5028255;28;20408;-36
2023/02/03 05:51:54;;;;;;;2.92;1.88;;;3.90;99.90;;;;;;5047456;28;20528;-36
2023/02/03 05:54:21;;;;;;;2.00;1.50;;;3.90;99.90;;;;;;5026395;28;20053;-36
2023/02/03 05:56:49;;;;;;;1.90;1.80;;;3.90;99.90;;;;;;5047046;28;20037;-36
2023/02/03 05:59:17;;;;;;;8.02;2.88;;;3.90;99.90;;;;;;5048217;28;20056;-37
2023/02/03 06:01:45;;;;;;;1.58;1.48;;;3.90;99.90;;;;;;5048503;28;20509;-37
2023/02/03 06:04:12;;;;;;;1.20;1.10;;;3.90;99.90;;;;;;5047005;28;20056;-36
2023/02/03 06:06:40;;;;;;;1.50;1.50;;;3.90;99.90;;;;;;5047574;28;20761;-38
2023/02/03 06:09:08;;;;;;;1.50;1.40;;;3.90;99.90;;;;;;5046480;28;20049;-37
2023/02/03 06:11:36;;;;;;;1.95;1.60;;;3.90;99.90;;;;;;5047593;28;20065;-38
2023/02/03 06:14:03;;;;;;;1.70;1.60;;;4.00;99.90;;;;;;5047574;28;20045;-37
2023/02/03 06:16:31;;;;;;;1.88;1.50;;;4.00;99.90;;;;;;5046451;28;20045;-37
2023/02/03 06:18:59;;;;;;;3.53;1.98;;;4.00;99.90;;;;;;5049078;28;20053;-37
2023/02/03 06:21:27;;;;;;;1.45;1.35;;;4.00;99.90;;;;;;5047812;28;20040;-37
2023/02/03 06:23:56;;;;;;;1.73;1.33;;;4.10;99.90;;;;;;5044320;28;20409;-37
2023/02/03 06:26:24;;;;;;;2.03;1.60;;;4.00;99.90;;;;;;5050400;28;20418;-37
2023/02/03 06:28:51;;;;;;;2.03;1.48;;;4.00;99.90;;;;;;5050948;28;20045;-38
2023/02/03 06:31:19;;;;;;;2.40;2.20;;;3.90;99.90;;;;;;5051829;28;20072;-37
2023/02/03 06:33:47;;;;;;;2.17;1.98;;;3.90;99.90;;;;;;5050641;28;20044;-38
2023/02/03 06:36:14;;;;;;;2.60;2.00;;;4.00;99.90;;;;;;5050314;28;20065;-38
2023/02/03 06:38:42;;;;;;;1.30;1.20;;;3.90;99.90;;;;;;5049870;28;20060;-36
2023/02/03 06:41:09;;;;;;;2.47;1.58;;;4.00;99.90;;;;;;5051859;28;20045;-37
2023/02/03 06:43:37;;;;;;;3.28;1.30;;;3.90;99.90;;;;;;5051136;28;20141;-35
2023/02/03 06:46:04;;;;;;;1.25;1.25;;;3.90;99.90;;;;;;5050553;28;20052;-37
2023/02/03 06:48:32;;;;;;;2.22;2.13;;;4.00;99.90;;;;;;5051410;28;20405;-36
2023/02/03 06:51:00;;;;;;;4.00;1.33;;;4.00;99.90;;;;;;5051175;28;20049;-36
2023/02/03 06:53:27;;;;;;;2.05;1.67;;;4.00;99.90;;;;;;5049289;28;20413;-35
2023/02/03 06:55:55;;;;;;;2.47;1.88;;;4.00;99.90;;;;;;5050106;28;20080;-35
2023/02/03 06:58:23;;;;;;;1.55;1.45;;;4.00;99.90;;;;;;5051024;28;20048;-36
2023/02/03 07:00:54;;;;;;;3.53;1.95;;;4.00;99.90;;;;;;5051905;28;20052;-36
2023/02/03 07:03:21;;;;;;;2.05;1.83;;;4.00;99.90;;;;;;5050485;28;20049;-36
2023/02/03 07:05:49;;;;;;;2.58;1.38;;;4.10;99.90;;;;;;5050637;28;20060;-36
2023/02/03 07:08:17;;;;;;;1.85;1.75;;;4.10;99.90;;;;;;5050358;28;20057;-36
2023/02/03 07:10:44;;;;;;;2.13;1.27;;;4.10;99.90;;;;;;5051403;28;20060;-35
2023/02/03 07:13:12;;;;;;;2.50;1.50;;;4.00;99.90;;;;;;5031288;28;20442;-35
2023/02/03 07:15:39;;;;;;;3.13;1.77;;;4.10;99.90;;;;;;5051363;28;20425;-35
2023/02/03 07:18:07;;;;;;;1.45;1.33;;;4.10;99.90;;;;;;5049828;28;20037;-36
2023/02/03 07:20:35;;;;;;;1.52;1.42;;;4.10;99.90;;;;;;5054671;28;20033;-36
2023/02/03 07:23:03;;;;;;;4.80;1.95;;;4.20;99.90;;;;;;5030011;28;20064;-36
2023/02/03 07:25:31;;;;;;;1.90;1.80;;;4.10;99.90;;;;;;5049896;28;20068;-36
2023/02/03 07:27:58;;;;;;;1.90;1.75;;;4.20;99.90;;;;;;5030514;28;20056;-36
2023/02/03 07:30:26;;;;;;;1.85;1.75;;;4.20;99.90;;;;;;5042595;28;20068;-36
2023/02/03 07:32:54;;;;;;;1.83;1.73;;;4.20;99.90;;;;;;5048252;28;20053;-36
2023/02/03 07:35:21;;;;;;;1.50;1.40;;;4.20;99.90;;;;;;5049782;28;20493;-36
2023/02/03 07:37:49;;;;;;;2.70;1.92;;;4.20;99.90;;;;;;5045551;28;20054;-36
2023/02/03 07:40:17;;;;;;;1.95;1.85;;;4.20;99.90;;;;;;5049412;28;20053;-36
2023/02/03 07:42:48;;;;;;;1.95;1.50;;;4.20;99.90;;;;;;5049535;28;20052;-36
2023/02/03 07:45:17;;;;;;;2.20;2.10;;;4.20;99.90;;;;;;5048473;28;20052;-36
2023/02/03 07:47:44;;;;;;;1.70;1.60;;;4.20;99.90;;;;;;5050558;28;20376;-36
2023/02/03 07:50:12;;;;;;;1.60;1.50;;;4.30;99.90;;;;;;5049855;28;20048;-37
2023/02/03 07:52:40;;;;;;;3.58;1.45;;;4.30;99.90;;;;;;5048598;28;20064;-36
2023/02/03 07:55:08;;;;;;;1.60;1.50;;;4.30;99.90;;;;;;5048763;28;20055;-36
2023/02/03 07:57:36;;;;;;;2.60;2.40;;;4.30;99.90;;;;;;5049669;28;20052;-36
2023/02/03 08:00:04;;;;;;;1.50;1.40;;;4.30;99.90;;;;;;5050067;28;20053;-36
2023/02/03 08:02:39;;;;;;;4.18;1.63;;;4.40;99.90;;;;;;5046699;28;20417;-36
2023/02/03 08:05:07;;;;;;;2.05;1.77;;;4.40;99.90;;;;;;5049718;28;20068;-36
2023/02/03 08:07:34;;;;;;;1.92;1.83;;;4.40;99.90;;;;;;5050735;28;20052;-36
2023/02/03 08:10:03;;;;;;;1.15;1.15;;;4.40;99.90;;;;;;5047796;28;20056;-36
2023/02/03 08:12:30;;;;;;;2.22;1.67;;;4.50;99.90;;;;;;5049648;28;20056;-36
2023/02/03 08:14:58;;;;;;;1.60;1.50;;;4.50;99.90;;;;;;5049707;28;20045;-36
2023/02/03 08:17:26;;;;;;;1.77;1.58;;;4.60;99.90;;;;;;5050307;28;20527;-36
2023/02/03 08:19:53;;;;;;;1.60;1.60;;;4.70;99.90;;;;;;5046985;28;20425;-36
2023/02/03 08:22:21;;;;;;;0.90;0.90;;;4.60;99.90;;;;;;5061452;28;20049;-36
2023/02/03 08:24:49;;;;;;;7.80;1.77;;;4.70;99.90;;;;;;5059037;28;20523;-37
2023/02/03 08:27:19;;;;;;;1.75;1.65;;;4.70;99.90;;;;;;5055189;28;20516;-36
2023/02/03 08:29:47;;;;;;;1.55;1.38;;;4.70;99.90;;;;;;5033095;28;20052;-36
2023/02/03 08:32:18;;;;;;;3.85;1.30;;;4.60;99.90;;;;;;5030148;28;20049;-36
2023/02/03 08:34:46;;;;;;;2.92;1.15;;;4.60;99.90;;;;;;5049774;28;20557;-36
2023/02/03 08:37:15;;;;;;;3.63;1.58;;;4.70;99.90;;;;;;5056252;28;20049;-35
2023/02/03 08:39:43;;;;;;;3.30;1.50;;;4.80;99.90;;;;;;5052572;28;20071;-36
2023/02/03 08:42:11;;;;;;;4.55;1.77;;;4.80;99.90;;;;;;5030199;28;20053;-36
2023/02/03 08:44:38;;;;;;;1.70;1.63;;;4.80;99.90;;;;;;5040171;28;20500;-36
2023/02/03 08:47:06;;;;;;;3.58;2.10;;;4.90;99.90;;;;;;5050388;28;20556;-38
2023/02/03 08:49:34;;;;;;;5.97;1.50;;;4.90;99.90;;;;;;5048194;28;20524;-36
2023/02/03 08:52:02;;;;;;;1.88;1.73;;;5.00;99.90;;;;;;5048714;28;20056;-37
2023/02/03 08:54:29;;;;;;;1.60;1.50;;;4.90;99.90;;;;;;5045515;28;20402;-37
2023/02/03 08:56:58;;;;;;;3.03;1.80;;;5.00;99.90;;;;;;5049992;28;20048;-36
2023/02/03 08:59:25;;;;;;;2.70;1.33;;;5.00;99.90;;;;;;5047779;28;20114;-36
2023/02/03 09:01:53;;;;;;;1.58;1.08;;;5.00;99.90;;;;;;5046265;28;20048;-37
2023/02/03 09:04:24;;;;;;;1.42;1.00;;;5.10;99.90;;;;;;5047628;28;20041;-36
2023/02/03 09:06:55;;;;;;;1.48;1.38;;;5.10;99.90;;;;;;5045825;28;20053;-36
2023/02/03 09:09:24;;;;;;;1.27;1.27;;;5.10;99.90;;;;;;5042922;28;20539;-36
2023/02/03 09:11:54;;;;;;;1.23;1.13;;;5.20;99.90;;;;;;5046285;28;20425;-39
2023/02/03 09:14:24;;;;;;;;;;;5.20;99.90;;;;;;5048616;28;20053;-35
2023/02/03 09:16:51;;;;;;;1.98;1.88;;;5.20;99.90;;;;;;5045700;28;19931;-36
2023/02/03 09:19:19;;;;;;;2.00;1.33;;;5.20;99.90;;;;;;5043491;28;20064;-36
2023/02/03 09:21:49;;;;;;;2.40;1.17;;;5.30;99.90;;;;;;5029432;28;20041;-36
2023/02/03 09:24:18;;;;;;;0.90;0.90;;;5.20;99.90;;;;;;5047430;28;20041;-35
2023/02/03 09:26:45;;;;;;;1.40;1.30;;;5.30;99.90;;;;;;5048600;28;20049;-36
2023/02/03 09:29:13;;;;;;;2.08;1.83;;;5.40;99.90;;;;;;5047590;28;20049;-37
2023/02/03 09:31:41;;;;;;;1.25;1.10;;;5.40;99.90;;;;;;5048735;28;20053;-37
2023/02/03 09:34:08;;;;;;;1.63;1.17;;;5.40;99.90;;;;;;5049439;28;20061;-36
2023/02/03 09:36:36;;;;;;;0.93;0.93;;;5.40;99.90;;;;;;5046521;28;20163;-36
2023/02/03 09:39:04;;;;;;;1.15;1.05;;;5.40;99.90;;;;;;5046442;28;20053;-36
2023/02/03 09:41:50;;;;;;;1.95;1.33;;;5.40;99.90;;;;;;5046971;28;20437;-36
2023/02/03 09:44:39;;;;;;;1.35;1.27;;;5.40;99.90;;;;;;5046259;28;20041;-36
2023/02/03 09:47:24;;;;;;;1.23;1.10;;;5.50;99.90;;;;;;5046480;28;20398;-36
2023/02/03 09:49:58;;;;;;;6.50;1.30;;;5.50;99.90;;;;;;5046608;28;20053;-36
2023/02/03 09:52:38;;;;;;;2.22;1.08;;;5.50;99.90;;;;;;5046923;28;20491;-36
2023/02/03 09:55:32;;;;;;;2.40;1.25;;;5.60;99.90;;;;;;5046033;28;20053;-36
2023/02/03 09:58:07;;;;;;;1.33;1.00;;;5.60;99.90;;;;;;5045903;28;20052;-36
2023/02/03 10:00:41;;;;;;;1.20;1.20;;;5.60;99.90;;;;;;5043343;28;20055;-36
2023/02/03 10:03:15;;;;;;;1.50;1.38;;;5.70;99.90;;;;;;5041949;28;20064;-37
2023/02/03 10:06:07;;;;;;;1.08;0.98;;;5.70;99.90;;;;;;5048133;28;20052;-36
2023/02/03 10:08:59;;;;;;;1.00;1.00;;;5.70;99.90;;;;;;5044166;28;20513;-35
2023/02/03 10:11:32;;;;;;;1.73;1.23;;;5.70;99.90;;;;;;5048159;28;20072;-36
2023/02/03 10:14:08;;;;;;;1.77;1.63;;;5.70;99.90;;;;;;5046155;28;20056;-36
2023/02/03 10:17:02;;;;;;;1.20;1.10;;;5.70;99.90;;;;;;5046046;28;20044;-36
2023/02/03 10:19:46;;;;;;;2.17;1.05;;;5.70;99.90;;;;;;5048859;28;20742;-36
2023/02/03 10:22:26;;;;;;;1.17;1.08;;;5.70;99.90;;;;;;5040860;28;20049;-36
2023/02/03 10:24:59;;;;;;;1.20;1.10;;;5.70;99.90;;;;;;5044963;28;20041;-37
2023/02/03 10:27:28;;;;;;;2.95;1.23;;;5.80;99.90;;;;;;5048433;28;20067;-36
2023/02/03 10:29:58;;;;;;;3.80;1.95;;;5.70;99.90;;;;;;5047387;28;20064;-36
2023/02/03 10:32:26;;;;;;;1.83;1.50;;;5.80;99.90;;;;;;5047920;28;20052;-35
2023/02/03 10:34:54;;;;;;;1.95;1.20;;;5.80;99.90;;;;;;5047994;28;20049;-35
2023/02/03 10:37:32;;;;;;;3.38;3.08;;;5.80;99.90;;;;;;5046435;28;20045;-35
2023/02/03 10:40:01;;;;;;;2.17;1.98;;;5.80;99.90;;;;;;5042070;28;20061;-36
2023/02/03 10:43:46;;;;;;;4.53;1.73;;;5.80;99.90;;;;;;5046652;28;20049;-36
2023/02/03 10:45:19;;;;;;;1.50;1.33;;;5.80;99.90;;;;;;5047586;28;20045;-36
2023/02/03 10:47:53;;;;;;;2.00;1.88;;;5.90;99.90;;;;;;5045128;28;20041;-36
2023/02/03 10:50:30;;;;;;;2.90;1.55;;;5.90;99.90;;;;;;5043188;28;20057;-36
2023/02/03 10:53:21;;;;;;;11.20;1.08;;;5.80;99.90;;;;;;5045703;28;20052;-36
2023/02/03 10:55:59;;;;;;;1.67;1.35;;;5.80;99.90;;;;;;5024172;28;20124;-36
2023/02/03 10:58:29;;;;;;;0.93;0.90;;;5.80;99.90;;;;;;5046197;28;20048;-36
2023/02/03 11:01:13;;;;;;;1.30;1.05;;;5.90;99.90;;;;;;5046206;28;20045;-36
2023/02/03 11:03:52;;;;;;;1.20;1.20;;;5.80;99.90;;;;;;5044730;28;20622;-36
2023/02/03 11:06:19;;;;;;;1.30;1.30;;;5.80;99.90;;;;;;5045777;28;20053;-36
2023/02/03 11:08:49;;;;;;;7.53;1.42;;;5.80;99.90;;;;;;5045130;28;20049;-36
2023/02/03 11:11:33;;;;;;;1.02;1.02;;;5.90;99.90;;;;;;5050773;28;20421;-36
2023/02/03 11:14:03;;;;;;;2.03;1.40;;;6.00;99.90;;;;;;5047856;28;20448;-36
2023/02/03 11:16:33;;;;;;;1.10;1.00;;;6.00;99.90;;;;;;5053990;28;20041;-36
2023/02/03 11:19:03;;;;;;;2.92;1.45;;;6.00;99.90;;;;;;5048294;28;20508;-37
2023/02/03 11:21:41;;;;;;;1.15;1.15;;;6.00;99.90;;;;;;5051071;28;20041;-36
2023/02/03 11:24:21;;;;;;;1.25;1.15;;;6.10;99.90;;;;;;5048273;28;20071;-36
2023/02/03 11:26:55;;;;;;;1.58;1.48;;;6.10;99.90;;;;;;5052148;28;20071;-35
2023/02/03 11:29:27;;;;;;;3.38;1.85;;;6.10;99.90;;;;;;5050570;28;20514;-36
2023/02/03 11:32:00;;;;;;;1.30;1.20;;;6.20;99.90;;;;;;5050430;28;20061;-36
2023/02/03 11:34:37;;;;;;;1.13;1.00;;;6.20;99.90;;;;;;5050434;28;20055;-36
2023/02/03 11:37:37;;;;;;;1.13;1.13;;;6.20;99.90;;;;;;5046872;28;20498;-37
2023/02/03 11:40:09;;;;;;;1.88;1.40;;;6.20;99.90;;;;;;5051134;28;20053;-37
2023/02/03 11:42:42;;;;;;;1.05;1.00;;;6.30;99.90;;;;;;5050681;28;20512;-36
2023/02/03 11:45:28;;;;;;;1.08;0.98;;;6.30;99.90;;;;;;5050712;28;20055;-38
2023/02/03 11:48:15;;;;;;;1.45;1.35;;;6.30;99.90;;;;;;5052088;28;20052;-36
2023/02/03 11:50:54;;;;;;;1.00;1.00;;;6.30;99.90;;;;;;5026657;28;20064;-37
2023/02/03 11:53:27;;;;;;;1.33;1.20;;;6.40;99.90;;;;;;5048212;28;20048;-36
2023/02/03 11:56:04;;;;;;;1.67;1.58;;;6.40;99.90;;;;;;5051954;28;20048;-36
2023/02/03 11:59:09;;;;;;;1.67;1.00;;;6.40;99.90;;;;;;5031192;28;20056;-38
2023/02/03 12:02:04;;;;;;;0.75;0.75;;;6.40;99.90;;;;;;5050601;28;20568;-38
2023/02/03 12:05:01;;;;;;;1.05;0.98;;;6.40;99.90;;;;;;5043816;28;20457;-38
2023/02/03 12:07:56;;;;;;;2.67;1.83;;;6.40;99.90;;;;;;5047828;28;20370;-37
2023/02/03 12:10:30;;;;;;;1.45;1.40;;;6.50;99.90;;;;;;5044318;28;20044;-36
2023/02/03 12:13:23;;;;;;;1.45;1.35;;;6.50;99.90;;;;;;5046916;28;20033;-35
2023/02/03 12:16:14;;;;;;;6.07;1.95;;;6.50;99.90;;;;;;5049672;28;20057;-36
2023/02/03 12:19:08;;;;;;;0.70;0.70;;;6.50;99.90;;;;;;5008361;28;20064;-36
2023/02/03 12:21:46;;;;;;;0.77;0.73;;;6.40;99.90;;;;;;5046208;28;20067;-36
2023/02/03 12:24:18;;;;;;;0.82;0.82;;;6.40;99.90;;;;;;5044312;28;20064;-35
2023/02/03 12:27:03;;;;;;;2.22;1.35;;;6.40;99.90;;;;;;5043623;28;20417;-35
2023/02/03 12:29:42;;;;;;;1.20;1.13;;;6.50;99.90;;;;;;5047660;28;20057;-36
2023/02/03 12:32:35;;;;;;;0.80;0.80;;;6.50;99.90;;;;;;5045397;28;20045;-36
2023/02/03 12:35:24;;;;;;;3.13;1.05;;;6.40;99.90;;;;;;5047238;28;20040;-36
2023/02/03 12:38:07;;;;;;;1.05;1.05;;;6.40;99.90;;;;;;5046563;28;20067;-36
2023/02/03 12:40:53;;;;;;;0.95;0.95;;;6.40;99.90;;;;;;5040894;28;20431;-35
2023/02/03 12:43:36;;;;;;;1.00;0.90;;;6.40;99.90;;;;;;5046822;28;20049;-36
2023/02/03 12:46:11;;;;;;;3.40;1.10;;;6.40;99.90;;;;;;5047627;28;20048;-35
2023/02/03 12:48:48;;;;;;;0.80;0.80;;;6.40;99.90;;;;;;5045753;28;20048;-36
2023/02/03 12:51:34;;;;;;;1.58;1.48;;;6.40;99.90;;;;;;5049907;28;20037;-36
2023/02/03 12:54:22;;;;;;;1.30;1.20;;;6.50;99.90;;;;;;5047467;28;20044;-36
2023/02/03 12:56:53;;;;;;;0.80;0.80;;;6.50;99.90;;;;;;5049832;28;20601;-36
2023/02/03 12:59:24;;;;;;;0.80;0.80;;;6.40;99.90;;;;;;5050219;28;20060;-35
2023/02/03 13:02:00;;;;;;;0.80;0.80;;;6.40;99.90;;;;;;5046879;28;20432;-36
2023/02/03 13:04:35;;;;;;;1.38;0.90;;;6.40;99.90;;;;;;5048215;28;20048;-36
2023/02/03 13:07:25;;;;;;;1.23;1.13;;;6.50;99.90;;;;;;5046864;28;20064;-36
2023/02/03 13:10:18;;;;;;;0.98;0.98;;;6.40;99.90;;;;;;5041224;28;20041;-35
2023/02/03 13:12:54;;;;;;;1.48;1.00;;;6.40;99.90;;;;;;5045833;28;20042;-35
2023/02/03 13:15:45;;;;;;;1.15;1.15;;;6.40;99.90;;;;;;5049107;28;20060;-36
2023/02/03 13:18:35;;;;;;;1.77;1.00;;;6.30;99.90;;;;;;5044112;28;20036;-36
2023/02/03 13:21:03;;;;;;;3.60;1.27;;;6.30;99.90;;;;;;5044830;28;20041;-36
2023/02/03 13:23:31;;;;;;;1.30;1.20;;;6.40;99.90;;;;;;5046016;28;20057;-36
2023/02/03 13:26:47;;;;;;;1.73;1.27;;;6.30;99.90;;;;;;5043783;28;20532;-36
2023/02/03 13:29:17;;;;;;;1.42;0.88;;;6.30;99.90;;;;;;5042644;28;20303;-35